Main page
METAR-TAF:

METAR-TAF

Airports :

Termez, Uzbekistan

Termez Airport

latitude: 37-14N, longitude: 067-16E, elevation: 302 m

Current weather observation

The report was made 50 minutes ago, at 16:30 UTC
Wind 4 kt from the West/Northwest, varying between West and North/Northwest
Temperature 30°C
Humidity 29%
Pressure 1008 hPa
Visibility 10 km or more
no clouds below 1500 m and no cumulonimbus

METAR: UTST 261630Z 30004KT 270V340 CAVOK 30/10 Q1008 R88/CLRD70 NOSIG

Time: 22:20 (17:20 UTC)

Forecast

The report was made 6 hours and 20 minutes ago, at 11:00 UTC
Forecast valid from 26 at 12 UTC to 27 at 12 UTC
Wind 10 kt from the West with gusts up to 20 kt
Visibility: 6000 m
Temporary
from 26 at 12 UTC to 26 at 24 UTC
Wind 19 kt from the West/Northwest with gusts up to 29 kt
Visibility: 3000 m
Scattered clouds at a height of 6000 ft, Cumulonimbus.
Scattered clouds at a height of 10000 ft

TAF: UTST 261100Z 2612/2712 26010G20KT 6000 NSC TX39/2711Z TEMPO 2612/2624 29019G29KT 3000 -DS SCT060CB SCT100

Weather observations and forecasts of more than 4000 airports (METAR and TAF reports).

The available stations are represented by yellow and red dots on the map.

Hover mouse over dot to see the name of the station.

Then click to see weather observations and forecasts.

To change the map : click on the green buttons with a black cross to zoom in, on the green button with a dash to zoom out, or on the green arrows for adjacent maps.


METAR-TAF: